createdAt,value
2022-12-24T00:03:25.514Z,5.88
2022-12-24T00:09:27.077Z,4.73
2022-12-24T00:15:28.585Z,5.53
2022-12-24T00:21:30.103Z,6.27
2022-12-24T00:27:31.630Z,8.20
2022-12-24T00:33:33.070Z,8.60
2022-12-24T00:39:34.528Z,8.67
2022-12-24T00:45:35.987Z,8.75
2022-12-24T00:51:37.546Z,7.90
2022-12-24T00:57:39.060Z,8.48
2022-12-24T01:03:40.636Z,10.63
2022-12-24T01:09:42.318Z,10.27
2022-12-24T01:15:43.848Z,13.65
2022-12-24T01:21:45.415Z,8.27
2022-12-24T01:27:46.830Z,9.75
2022-12-24T01:33:48.994Z,11.82
2022-12-24T01:39:50.482Z,11.60
2022-12-24T01:45:52.990Z,9.70
2022-12-24T01:51:55.946Z,9.73
2022-12-24T01:57:59.464Z,9.95
2022-12-24T02:04:03.066Z,14.57
2022-12-24T02:10:05.277Z,14.03
2022-12-24T02:16:25.326Z,9.88
2022-12-24T02:22:45.400Z,11.40
2022-12-24T02:28:59.456Z,13.52
2022-12-24T02:35:21.842Z,7.55
2022-12-24T02:41:27.040Z,9.30
2022-12-24T02:47:31.037Z,7.43
2022-12-24T02:53:35.877Z,8.23
2022-12-24T02:59:57.407Z,8.70
2022-12-24T03:06:03.017Z,6.63
2022-12-24T03:12:08.069Z,7.73
2022-12-24T03:18:11.603Z,8.95
2022-12-24T03:24:13.064Z,6.80
2022-12-24T03:30:15.404Z,9.77
2022-12-24T03:36:17.474Z,9.82
2022-12-24T03:42:19.069Z,6.30
2022-12-24T03:48:20.545Z,7.10
2022-12-24T03:54:22.005Z,9.07
2022-12-24T04:00:23.534Z,10.45
2022-12-24T04:06:24.967Z,6.78
2022-12-24T04:12:26.410Z,6.03
2022-12-24T04:18:28.151Z,5.85
2022-12-24T04:24:29.641Z,8.40
2022-12-24T04:30:31.080Z,5.38
2022-12-24T04:36:32.515Z,7.90
2022-12-24T04:42:33.972Z,8.47
2022-12-24T04:48:35.980Z,9.57
2022-12-24T04:54:37.489Z,5.60
2022-12-24T05:00:39.464Z,9.90
2022-12-24T05:06:40.962Z,6.53
2022-12-24T05:12:42.400Z,9.23
2022-12-24T05:18:44.000Z,7.80
2022-12-24T05:25:03.918Z,5.60
2022-12-24T05:31:05.434Z,9.25
2022-12-24T05:37:07.001Z,7.68
2022-12-24T05:43:08.519Z,10.67
2022-12-24T05:49:09.979Z,8.45
2022-12-24T05:55:11.493Z,5.63
2022-12-24T06:01:14.017Z,9.90
2022-12-24T06:07:15.558Z,10.82
2022-12-24T06:13:17.017Z,8.57
2022-12-24T06:19:18.491Z,8.60
2022-12-24T06:25:19.996Z,8.87
2022-12-24T06:31:22.809Z,10.50
2022-12-24T06:37:24.354Z,11.00
2022-12-24T06:43:26.188Z,10.23
2022-12-24T06:49:27.608Z,7.82
2022-12-24T06:55:29.051Z,9.77
2022-12-24T07:01:30.768Z,9.10
2022-12-24T07:07:32.364Z,7.47
2022-12-24T07:13:34.479Z,7.27
2022-12-24T07:19:36.159Z,8.93
2022-12-24T07:25:37.609Z,12.60
2022-12-24T07:31:39.147Z,8.10
2022-12-24T07:37:40.701Z,8.35
2022-12-24T07:43:42.201Z,6.47
2022-12-24T07:49:43.715Z,5.93
2022-12-24T07:55:45.425Z,7.93
2022-12-24T08:01:47.143Z,8.45
2022-12-24T08:07:48.825Z,5.38
2022-12-24T08:13:50.343Z,11.10
2022-12-24T08:19:51.895Z,8.23
2022-12-24T08:25:53.379Z,11.97
2022-12-24T08:31:54.884Z,10.38
2022-12-24T08:37:56.518Z,8.00
2022-12-24T08:43:58.041Z,8.67
2022-12-24T08:49:59.514Z,13.18
2022-12-24T08:56:01.829Z,8.23
2022-12-24T09:02:03.554Z,9.25
2022-12-24T09:08:05.214Z,12.43
2022-12-24T09:14:06.672Z,10.63
2022-12-24T09:20:08.364Z,13.02
2022-12-24T09:26:12.113Z,10.57
2022-12-24T09:32:14.000Z,12.45
2022-12-24T09:38:15.485Z,8.13
2022-12-24T09:44:22.476Z,8.50
2022-12-24T09:50:33.091Z,12.55
2022-12-24T09:56:37.747Z,7.90
2022-12-24T10:02:39.407Z,11.20
2022-12-24T10:08:51.183Z,7.95
2022-12-24T10:14:58.583Z,9.03
2022-12-24T10:21:14.619Z,5.57
2022-12-24T10:27:16.770Z,5.37
2022-12-24T10:33:19.736Z,8.05
2022-12-24T10:39:23.140Z,7.55
2022-12-24T10:45:26.121Z,6.73
2022-12-24T10:51:38.518Z,7.75
2022-12-24T10:57:40.408Z,8.00
2022-12-24T11:03:42.546Z,4.95
2022-12-24T11:09:56.721Z,8.43
2022-12-24T11:16:03.142Z,7.60
2022-12-24T11:22:16.717Z,6.75
2022-12-24T11:28:20.739Z,8.97
2022-12-24T11:34:29.997Z,5.20
2022-12-24T11:40:40.999Z,7.22
2022-12-24T11:46:46.268Z,6.33
2022-12-24T11:52:49.904Z,6.82
2022-12-24T11:58:54.991Z,5.30
2022-12-24T12:04:58.683Z,5.40
2022-12-24T12:11:00.734Z,7.40
2022-12-24T12:17:03.972Z,5.70
2022-12-24T12:23:15.165Z,7.10
2022-12-24T12:29:25.446Z,8.33
2022-12-24T12:35:32.762Z,6.53
2022-12-24T12:41:44.905Z,5.93
2022-12-24T12:47:49.347Z,8.17
2022-12-24T12:54:09.431Z,5.82
2022-12-24T13:00:12.599Z,6.23
2022-12-24T13:06:25.139Z,8.55
2022-12-24T13:12:37.287Z,8.00
2022-12-24T13:18:53.678Z,6.47
2022-12-24T13:24:55.718Z,7.65
2022-12-24T13:31:16.118Z,8.17
2022-12-24T13:37:21.663Z,10.73
2022-12-24T13:43:23.231Z,7.53
2022-12-24T13:49:43.875Z,7.90
2022-12-24T13:55:55.917Z,10.15
2022-12-24T14:01:57.678Z,8.73
2022-12-24T14:08:00.876Z,13.02
2022-12-24T14:14:05.075Z,16.08
2022-12-24T14:20:08.679Z,12.20
2022-12-24T14:26:15.444Z,9.55
2022-12-24T14:32:17.193Z,10.83
2022-12-24T14:38:18.825Z,10.02
2022-12-24T14:44:35.327Z,9.30
2022-12-24T14:50:45.350Z,6.47
2022-12-24T14:56:46.855Z,7.85
2022-12-24T15:02:50.575Z,9.27
2022-12-24T15:08:52.144Z,12.13
2022-12-24T15:14:53.698Z,7.93
2022-12-24T15:21:02.001Z,9.93
2022-12-24T15:27:30.043Z,13.40
2022-12-24T15:33:37.767Z,7.10
2022-12-24T15:39:40.900Z,10.35
2022-12-24T15:45:45.494Z,10.93
2022-12-24T15:51:47.067Z,10.50
2022-12-24T15:57:48.560Z,7.32
2022-12-24T16:03:50.129Z,12.80
2022-12-24T16:09:52.123Z,16.15
2022-12-24T16:15:55.773Z,14.82
2022-12-24T16:21:58.434Z,14.33
2022-12-24T16:28:00.826Z,10.35
2022-12-24T16:34:04.706Z,12.23
2022-12-24T16:40:09.184Z,9.50
2022-12-24T16:46:14.193Z,10.60
2022-12-24T16:52:23.887Z,15.13
2022-12-24T16:58:25.368Z,14.52
2022-12-24T17:04:26.874Z,10.90
2022-12-24T17:10:28.365Z,10.73
2022-12-24T17:16:30.092Z,12.07
2022-12-24T17:22:31.601Z,13.57
2022-12-24T17:28:33.191Z,9.70
2022-12-24T17:34:34.697Z,14.53
2022-12-24T17:40:36.177Z,16.63
2022-12-24T17:46:37.712Z,10.35
2022-12-24T17:52:39.271Z,12.50
2022-12-24T17:58:44.759Z,11.20
2022-12-24T18:04:46.280Z,12.73
2022-12-24T18:10:47.742Z,7.45
2022-12-24T18:16:49.809Z,7.47
2022-12-24T18:22:51.429Z,10.17
2022-12-24T18:28:53.657Z,10.82
2022-12-24T18:34:55.227Z,10.73
2022-12-24T18:41:01.516Z,10.77
2022-12-24T18:47:03.080Z,11.07
2022-12-24T18:53:04.752Z,8.93
2022-12-24T18:59:06.366Z,13.05
2022-12-24T19:05:08.196Z,13.83
2022-12-24T19:11:09.784Z,7.05
2022-12-24T19:17:11.246Z,9.65
2022-12-24T19:23:12.727Z,9.63
2022-12-24T19:29:14.219Z,10.50
2022-12-24T19:35:15.708Z,13.17
2022-12-24T19:41:18.639Z,13.00
2022-12-24T19:47:20.511Z,11.93
2022-12-24T19:53:21.947Z,17.37
2022-12-24T19:59:23.404Z,15.63
2022-12-24T20:05:24.836Z,9.90
2022-12-24T20:11:26.300Z,14.27
2022-12-24T20:17:27.748Z,17.40
2022-12-24T20:23:29.637Z,11.63
2022-12-24T20:29:31.159Z,11.52
2022-12-24T20:35:33.905Z,8.93
2022-12-24T20:41:35.968Z,12.57
2022-12-24T20:47:37.473Z,15.75
2022-12-24T20:53:40.268Z,12.80
2022-12-24T20:59:41.827Z,12.88
2022-12-24T21:05:45.288Z,19.57
2022-12-24T21:11:49.746Z,15.70
2022-12-24T21:17:51.657Z,18.25
2022-12-24T21:23:53.223Z,17.97
2022-12-24T21:29:54.751Z,18.88
2022-12-24T21:35:59.691Z,19.57
2022-12-24T21:42:01.265Z,15.98
2022-12-24T21:48:22.895Z,14.30
2022-12-24T21:54:26.961Z,16.43
2022-12-24T22:00:30.518Z,16.13
2022-12-24T22:06:50.784Z,20.93
2022-12-24T22:12:53.448Z,12.90
2022-12-24T22:18:54.913Z,19.48
2022-12-24T22:24:56.421Z,18.13
2022-12-24T22:30:58.203Z,21.30
2022-12-24T22:36:59.833Z,16.70
2022-12-24T22:43:01.595Z,18.23
2022-12-24T22:49:03.167Z,17.13
2022-12-24T22:55:04.901Z,14.53
2022-12-24T23:01:06.411Z,16.33
2022-12-24T23:07:08.896Z,16.13
2022-12-24T23:13:31.252Z,22.35
2022-12-24T23:19:33.536Z,22.92
2022-12-24T23:25:35.464Z,17.17
2022-12-24T23:31:37.691Z,14.25
2022-12-24T23:37:39.727Z,13.97
2022-12-24T23:43:41.184Z,13.85
2022-12-24T23:49:42.676Z,17.90
2022-12-24T23:55:44.563Z,11.47
